sensor_id;sensor_type;location;lat;lon;timestamp;pressure;altitude;pressure_sealevel;temperature
77599;BMP280;66758;52.078;5.070;2023-05-19T00:00:18;102956.69;;;9.57
77599;BMP280;66758;52.078;5.070;2023-05-19T00:02:44;102958.09;;;9.54
77599;BMP280;66758;52.078;5.070;2023-05-19T00:05:10;102956.28;;;9.44
77599;BMP280;66758;52.078;5.070;2023-05-19T00:07:40;102950.84;;;9.39
77599;BMP280;66758;52.078;5.070;2023-05-19T00:10:07;102937.25;;;9.34
77599;BMP280;66758;52.078;5.070;2023-05-19T00:12:32;102945.00;;;9.27
77599;BMP280;66758;52.078;5.070;2023-05-19T00:14:59;102943.88;;;9.28
77599;BMP280;66758;52.078;5.070;2023-05-19T00:17:24;102936.50;;;9.29
77599;BMP280;66758;52.078;5.070;2023-05-19T00:19:50;102934.56;;;9.29
77599;BMP280;66758;52.078;5.070;2023-05-19T00:22:16;102941.72;;;9.25
77599;BMP280;66758;52.078;5.070;2023-05-19T00:24:41;102944.75;;;9.24
77599;BMP280;66758;52.078;5.070;2023-05-19T00:27:07;102941.19;;;9.23
77599;BMP280;66758;52.078;5.070;2023-05-19T00:29:32;102939.91;;;9.16
77599;BMP280;66758;52.078;5.070;2023-05-19T00:31:57;102939.03;;;9.20
77599;BMP280;66758;52.078;5.070;2023-05-19T00:34:23;102937.47;;;9.14
77599;BMP280;66758;52.078;5.070;2023-05-19T00:36:48;102937.47;;;9.14
77599;BMP280;66758;52.078;5.070;2023-05-19T00:39:14;102946.31;;;9.06
77599;BMP280;66758;52.078;5.070;2023-05-19T00:41:40;102940.53;;;9.07
77599;BMP280;66758;52.078;5.070;2023-05-19T00:44:06;102937.56;;;9.04
77599;BMP280;66758;52.078;5.070;2023-05-19T00:46:31;102933.78;;;9.00
77599;BMP280;66758;52.078;5.070;2023-05-19T00:48:57;102930.25;;;8.99
77599;BMP280;66758;52.078;5.070;2023-05-19T00:51:25;102938.16;;;9.01
77599;BMP280;66758;52.078;5.070;2023-05-19T00:53:51;102946.69;;;8.94
77599;BMP280;66758;52.078;5.070;2023-05-19T00:56:17;102943.03;;;9.04
77599;BMP280;66758;52.078;5.070;2023-05-19T00:58:43;102932.09;;;9.04
77599;BMP280;66758;52.078;5.070;2023-05-19T01:01:09;102943.38;;;8.97
77599;BMP280;66758;52.078;5.070;2023-05-19T01:03:39;102937.91;;;8.97
77599;BMP280;66758;52.078;5.070;2023-05-19T01:06:05;102942.09;;;8.90
77599;BMP280;66758;52.078;5.070;2023-05-19T01:08:32;102939.28;;;8.95
77599;BMP280;66758;52.078;5.070;2023-05-19T01:10:58;102936.63;;;8.90
77599;BMP280;66758;52.078;5.070;2023-05-19T01:13:24;102928.13;;;8.91
77599;BMP280;66758;52.078;5.070;2023-05-19T01:18:21;102927.88;;;8.88
77599;BMP280;66758;52.078;5.070;2023-05-19T01:20:57;102929.06;;;8.82
77599;BMP280;66758;52.078;5.070;2023-05-19T01:26:30;102926.31;;;8.82
77599;BMP280;66758;52.078;5.070;2023-05-19T01:29:15;102926.00;;;8.83
77599;BMP280;66758;52.078;5.070;2023-05-19T01:31:42;102918.97;;;8.77
77599;BMP280;66758;52.078;5.070;2023-05-19T01:34:11;102916.94;;;8.88
77599;BMP280;66758;52.078;5.070;2023-05-19T01:36:40;102920.53;;;8.83
77599;BMP280;66758;52.078;5.070;2023-05-19T01:39:09;102918.91;;;8.82
77599;BMP280;66758;52.078;5.070;2023-05-19T01:41:35;102908.28;;;8.81
77599;BMP280;66758;52.078;5.070;2023-05-19T01:44:01;102909.91;;;8.82
77599;BMP280;66758;52.078;5.070;2023-05-19T01:46:26;102909.03;;;8.86
77599;BMP280;66758;52.078;5.070;2023-05-19T01:48:52;102900.66;;;8.78
77599;BMP280;66758;52.078;5.070;2023-05-19T01:51:17;102898.75;;;8.73
77599;BMP280;66758;52.078;5.070;2023-05-19T01:53:43;102901.28;;;8.69
77599;BMP280;66758;52.078;5.070;2023-05-19T01:56:08;102907.03;;;8.68
77599;BMP280;66758;52.078;5.070;2023-05-19T01:58:45;102905.72;;;8.60
77599;BMP280;66758;52.078;5.070;2023-05-19T02:04:12;102903.03;;;8.55
77599;BMP280;66758;52.078;5.070;2023-05-19T02:06:48;102901.44;;;8.49
77599;BMP280;66758;52.078;5.070;2023-05-19T02:12:27;102903.03;;;8.55
77599;BMP280;66758;52.078;5.070;2023-05-19T02:15:14;102910.69;;;8.53
77599;BMP280;66758;52.078;5.070;2023-05-19T02:17:42;102906.84;;;8.54
77599;BMP280;66758;52.078;5.070;2023-05-19T02:20:12;102902.47;;;8.58
77599;BMP280;66758;52.078;5.070;2023-05-19T02:22:37;102891.28;;;8.55
77599;BMP280;66758;52.078;5.070;2023-05-19T02:25:03;102897.03;;;8.53
77599;BMP280;66758;52.078;5.070;2023-05-19T02:27:29;102890.53;;;8.49
77599;BMP280;66758;52.078;5.070;2023-05-19T02:29:55;102894.63;;;8.47
77599;BMP280;66758;52.078;5.070;2023-05-19T02:32:20;102894.06;;;8.50
77599;BMP280;66758;52.078;5.070;2023-05-19T02:34:46;102887.19;;;8.52
77599;BMP280;66758;52.078;5.070;2023-05-19T02:37:14;102883.44;;;8.43
77599;BMP280;66758;52.078;5.070;2023-05-19T02:39:40;102883.97;;;8.50
77599;BMP280;66758;52.078;5.070;2023-05-19T02:42:06;102880.72;;;8.43
77599;BMP280;66758;52.078;5.070;2023-05-19T02:44:32;102871.16;;;8.46
77599;BMP280;66758;52.078;5.070;2023-05-19T02:46:57;102880.16;;;8.46
77599;BMP280;66758;52.078;5.070;2023-05-19T02:49:22;102874.44;;;8.43
77599;BMP280;66758;52.078;5.070;2023-05-19T02:51:48;102860.84;;;8.38
77599;BMP280;66758;52.078;5.070;2023-05-19T02:54:13;102873.13;;;8.40
77599;BMP280;66758;52.078;5.070;2023-05-19T02:56:39;102866.78;;;8.45
77599;BMP280;66758;52.078;5.070;2023-05-19T02:59:04;102868.47;;;8.41
77599;BMP280;66758;52.078;5.070;2023-05-19T03:01:30;102853.94;;;8.45
77599;BMP280;66758;52.078;5.070;2023-05-19T03:03:57;102855.38;;;8.38
77599;BMP280;66758;52.078;5.070;2023-05-19T03:06:23;102858.44;;;8.31
77599;BMP280;66758;52.078;5.070;2023-05-19T03:08:48;102857.28;;;8.37
77599;BMP280;66758;52.078;5.070;2023-05-19T03:11:14;102859.56;;;8.30
77599;BMP280;66758;52.078;5.070;2023-05-19T03:13:40;102862.78;;;8.32
77599;BMP280;66758;52.078;5.070;2023-05-19T03:16:05;102861.22;;;8.26
77599;BMP280;66758;52.078;5.070;2023-05-19T03:18:35;102855.75;;;8.26
77599;BMP280;66758;52.078;5.070;2023-05-19T03:21:01;102860.13;;;8.22
77599;BMP280;66758;52.078;5.070;2023-05-19T03:23:26;102865.91;;;8.20
77599;BMP280;66758;52.078;5.070;2023-05-19T03:25:53;102855.25;;;8.19
77599;BMP280;66758;52.078;5.070;2023-05-19T03:28:20;102858.56;;;8.16
77599;BMP280;66758;52.078;5.070;2023-05-19T03:30:45;102861.22;;;8.26
77599;BMP280;66758;52.078;5.070;2023-05-19T03:33:14;102861.84;;;8.13
77599;BMP280;66758;52.078;5.070;2023-05-19T03:35:40;102854.19;;;8.15
77599;BMP280;66758;52.078;5.070;2023-05-19T03:38:05;102851.75;;;8.13
77599;BMP280;66758;52.078;5.070;2023-05-19T03:40:31;102852.03;;;8.12
77599;BMP280;66758;52.078;5.070;2023-05-19T03:42:56;102852.59;;;8.09
77599;BMP280;66758;52.078;5.070;2023-05-19T03:45:22;102844.97;;;8.06
77599;BMP280;66758;52.078;5.070;2023-05-19T03:47:47;102849.63;;;8.05
77599;BMP280;66758;52.078;5.070;2023-05-19T03:50:13;102851.00;;;8.03
77599;BMP280;66758;52.078;5.070;2023-05-19T03:52:38;102843.59;;;8.08
77599;BMP280;66758;52.078;5.070;2023-05-19T03:55:04;102847.72;;;8.06
77599;BMP280;66758;52.078;5.070;2023-05-19T03:57:31;102848.25;;;8.08
77599;BMP280;66758;52.078;5.070;2023-05-19T03:59:58;102838.97;;;8.09
77599;BMP280;66758;52.078;5.070;2023-05-19T04:02:23;102851.50;;;8.10
77599;BMP280;66758;52.078;5.070;2023-05-19T04:04:49;102852.84;;;8.12
77599;BMP280;66758;52.078;5.070;2023-05-19T04:07:15;102848.72;;;8.15
77599;BMP280;66758;52.078;5.070;2023-05-19T04:09:40;102848.47;;;8.11
77599;BMP280;66758;52.078;5.070;2023-05-19T04:12:06;102842.19;;;8.11
77599;BMP280;66758;52.078;5.070;2023-05-19T04:14:31;102834.22;;;8.19
77599;BMP280;66758;52.078;5.070;2023-05-19T04:16:57;102841.31;;;8.20
77599;BMP280;66758;52.078;5.070;2023-05-19T04:19:23;102849.53;;;8.20
77599;BMP280;66758;52.078;5.070;2023-05-19T04:21:48;102848.38;;;8.21
77599;BMP280;66758;52.078;5.070;2023-05-19T04:24:13;102852.72;;;8.27
77599;BMP280;66758;52.078;5.070;2023-05-19T04:26:39;102848.09;;;8.28
77599;BMP280;66758;52.078;5.070;2023-05-19T04:29:09;102851.84;;;8.32
77599;BMP280;66758;52.078;5.070;2023-05-19T04:31:41;102861.13;;;8.36
77599;BMP280;66758;52.078;5.070;2023-05-19T04:34:06;102859.50;;;8.35
77599;BMP280;66758;52.078;5.070;2023-05-19T04:36:32;102865.78;;;8.36
77599;BMP280;66758;52.078;5.070;2023-05-19T04:38:59;102867.94;;;8.39
77599;BMP280;66758;52.078;5.070;2023-05-19T04:41:32;102868.16;;;8.42
77599;BMP280;66758;52.078;5.070;2023-05-19T04:43:58;102870.31;;;8.45
77599;BMP280;66758;52.078;5.070;2023-05-19T04:46:23;102866.41;;;8.56
77599;BMP280;66758;52.078;5.070;2023-05-19T04:48:50;102872.66;;;8.62
77599;BMP280;66758;52.078;5.070;2023-05-19T04:51:18;102872.53;;;8.72
77599;BMP280;66758;52.078;5.070;2023-05-19T04:53:44;102873.31;;;8.78
77599;BMP280;66758;52.078;5.070;2023-05-19T04:56:09;102878.16;;;8.86
77599;BMP280;66758;52.078;5.070;2023-05-19T04:58:39;102869.31;;;8.94
77599;BMP280;66758;52.078;5.070;2023-05-19T05:01:05;102869.31;;;8.94
77599;BMP280;66758;52.078;5.070;2023-05-19T05:03:31;102873.78;;;8.85
77599;BMP280;66758;52.078;5.070;2023-05-19T05:05:58;102868.84;;;8.87
77599;BMP280;66758;52.078;5.070;2023-05-19T05:08:24;102879.09;;;9.00
77599;BMP280;66758;52.078;5.070;2023-05-19T05:10:51;102879.72;;;8.92
77599;BMP280;66758;52.078;5.070;2023-05-19T05:13:21;102878.22;;;9.04
77599;BMP280;66758;52.078;5.070;2023-05-19T05:15:47;102879.28;;;9.09
77599;BMP280;66758;52.078;5.070;2023-05-19T05:18:14;102875.66;;;9.13
77599;BMP280;66758;52.078;5.070;2023-05-19T05:20:43;102883.28;;;9.16
77599;BMP280;66758;52.078;5.070;2023-05-19T05:23:09;102880.47;;;9.21
77599;BMP280;66758;52.078;5.070;2023-05-19T05:25:39;102879.34;;;9.27
77599;BMP280;66758;52.078;5.070;2023-05-19T05:28:05;102884.72;;;9.32
77599;BMP280;66758;52.078;5.070;2023-05-19T05:30:32;102881.19;;;9.32
77599;BMP280;66758;52.078;5.070;2023-05-19T05:32:57;102892.88;;;9.37
77599;BMP280;66758;52.078;5.070;2023-05-19T05:35:23;102890.06;;;9.42
77599;BMP280;66758;52.078;5.070;2023-05-19T05:37:48;102894.84;;;9.56
77599;BMP280;66758;52.078;5.070;2023-05-19T05:40:14;102893.75;;;9.57
77599;BMP280;66758;52.078;5.070;2023-05-19T05:42:40;102887.59;;;9.65
77599;BMP280;66758;52.078;5.070;2023-05-19T05:45:06;102892.41;;;9.73
77599;BMP280;66758;52.078;5.070;2023-05-19T05:47:32;102887.22;;;9.71
77599;BMP280;66758;52.078;5.070;2023-05-19T05:49:57;102890.13;;;9.80
77599;BMP280;66758;52.078;5.070;2023-05-19T05:52:28;102895.66;;;9.94
77599;BMP280;66758;52.078;5.070;2023-05-19T05:54:54;102893.59;;;9.86
77599;BMP280;66758;52.078;5.070;2023-05-19T05:57:20;102887.72;;;9.92
77599;BMP280;66758;52.078;5.070;2023-05-19T05:59:46;102895.81;;;10.02
77599;BMP280;66758;52.078;5.070;2023-05-19T06:02:12;102893.22;;;10.11
77599;BMP280;66758;52.078;5.070;2023-05-19T06:04:38;102893.44;;;10.14
77599;BMP280;66758;52.078;5.070;2023-05-19T06:07:03;102882.78;;;10.13
77599;BMP280;66758;52.078;5.070;2023-05-19T06:09:29;102887.94;;;10.33
77599;BMP280;66758;52.078;5.070;2023-05-19T06:11:56;102894.13;;;10.39
77599;BMP280;66758;52.078;5.070;2023-05-19T06:14:22;102890.78;;;10.55
77599;BMP280;66758;52.078;5.070;2023-05-19T06:16:48;102897.28;;;10.59
77599;BMP280;66758;52.078;5.070;2023-05-19T06:19:13;102894.19;;;10.80
77599;BMP280;66758;52.078;5.070;2023-05-19T06:21:39;102889.81;;;10.92
77599;BMP280;66758;52.078;5.070;2023-05-19T06:24:06;102890.22;;;10.86
77599;BMP280;66758;52.078;5.070;2023-05-19T06:26:32;102881.78;;;11.37
77599;BMP280;66758;52.078;5.070;2023-05-19T06:28:57;102881.28;;;11.35
77599;BMP280;66758;52.078;5.070;2023-05-19T06:31:23;102885.34;;;11.38
77599;BMP280;66758;52.078;5.070;2023-05-19T06:33:50;102876.34;;;11.59
77599;BMP280;66758;52.078;5.070;2023-05-19T06:36:16;102879.09;;;11.59
77599;BMP280;66758;52.078;5.070;2023-05-19T06:38:41;102874.69;;;11.72
77599;BMP280;66758;52.078;5.070;2023-05-19T06:41:07;102878.63;;;11.80
77599;BMP280;66758;52.078;5.070;2023-05-19T06:43:32;102875.19;;;11.96
77599;BMP280;66758;52.078;5.070;2023-05-19T06:45:58;102870.84;;;12.26
77599;BMP280;66758;52.078;5.070;2023-05-19T06:48:23;102881.88;;;12.04
77599;BMP280;66758;52.078;5.070;2023-05-19T06:50:49;102885.38;;;12.18
77599;BMP280;66758;52.078;5.070;2023-05-19T06:53:16;102880.13;;;12.30
77599;BMP280;66758;52.078;5.070;2023-05-19T06:55:41;102884.88;;;12.47
77599;BMP280;66758;52.078;5.070;2023-05-19T06:58:06;102877.63;;;12.51
77599;BMP280;66758;52.078;5.070;2023-05-19T07:00:32;102882.69;;;12.58
77599;BMP280;66758;52.078;5.070;2023-05-19T07:02:57;102881.81;;;12.48
77599;BMP280;66758;52.078;5.070;2023-05-19T07:05:24;102883.25;;;12.77
77599;BMP280;66758;52.078;5.070;2023-05-19T07:07:51;102885.88;;;12.90
77599;BMP280;66758;52.078;5.070;2023-05-19T07:10:16;102888.19;;;12.97
77599;BMP280;66758;52.078;5.070;2023-05-19T07:12:42;102886.63;;;13.30
77599;BMP280;66758;52.078;5.070;2023-05-19T07:15:07;102879.03;;;13.45
77599;BMP280;66758;52.078;5.070;2023-05-19T07:17:33;102881.66;;;13.58
77599;BMP280;66758;52.078;5.070;2023-05-19T07:19:58;102871.56;;;13.54
77599;BMP280;66758;52.078;5.070;2023-05-19T07:22:25;102876.13;;;13.50
77599;BMP280;66758;52.078;5.070;2023-05-19T07:24:51;102887.94;;;13.93
77599;BMP280;66758;52.078;5.070;2023-05-19T07:27:16;102872.56;;;13.75
77599;BMP280;66758;52.078;5.070;2023-05-19T07:29:42;102875.94;;;13.89
77599;BMP280;66758;52.078;5.070;2023-05-19T07:32:07;102879.75;;;14.23
77599;BMP280;66758;52.078;5.070;2023-05-19T07:34:33;102881.88;;;14.26
77599;BMP280;66758;52.078;5.070;2023-05-19T07:36:58;102883.63;;;14.30
77599;BMP280;66758;52.078;5.070;2023-05-19T07:39:24;102888.53;;;14.25
77599;BMP280;66758;52.078;5.070;2023-05-19T07:41:54;102882.00;;;14.38
77599;BMP280;66758;52.078;5.070;2023-05-19T07:44:21;102882.13;;;14.41
77599;BMP280;66758;52.078;5.070;2023-05-19T07:46:47;102883.19;;;14.20
77599;BMP280;66758;52.078;5.070;2023-05-19T07:49:13;102880.75;;;14.65
77599;BMP280;66758;52.078;5.070;2023-05-19T07:51:38;102877.34;;;14.59
77599;BMP280;66758;52.078;5.070;2023-05-19T07:54:05;102880.50;;;14.49
77599;BMP280;66758;52.078;5.070;2023-05-19T07:56:32;102867.09;;;14.22
77599;BMP280;66758;52.078;5.070;2023-05-19T07:58:57;102875.31;;;14.77
77599;BMP280;66758;52.078;5.070;2023-05-19T08:01:23;102883.81;;;14.92
77599;BMP280;66758;52.078;5.070;2023-05-19T08:03:48;102876.53;;;15.38
77599;BMP280;66758;52.078;5.070;2023-05-19T08:06:14;102869.53;;;15.40
77599;BMP280;66758;52.078;5.070;2023-05-19T08:08:39;102874.56;;;14.97
77599;BMP280;66758;52.078;5.070;2023-05-19T08:11:06;102863.53;;;14.97
77599;BMP280;66758;52.078;5.070;2023-05-19T08:13:31;102863.03;;;14.95
77599;BMP280;66758;52.078;5.070;2023-05-19T08:15:59;102873.69;;;15.05
77599;BMP280;66758;52.078;5.070;2023-05-19T08:18:27;102855.22;;;15.38
77599;BMP280;66758;52.078;5.070;2023-05-19T08:20:53;102860.78;;;15.18
77599;BMP280;66758;52.078;5.070;2023-05-19T08:23:18;102862.06;;;15.20
77599;BMP280;66758;52.078;5.070;2023-05-19T08:25:44;102852.81;;;15.16
77599;BMP280;66758;52.078;5.070;2023-05-19T08:28:10;102852.66;;;14.92
77599;BMP280;66758;52.078;5.070;2023-05-19T08:30:35;102843.38;;;14.96
77599;BMP280;66758;52.078;5.070;2023-05-19T08:33:01;102847.81;;;15.10
77599;BMP280;66758;52.078;5.070;2023-05-19T08:35:27;102843.28;;;15.79
77599;BMP280;66758;52.078;5.070;2023-05-19T08:37:52;102846.34;;;16.11
77599;BMP280;66758;52.078;5.070;2023-05-19T08:40:19;102844.16;;;16.53
77599;BMP280;66758;52.078;5.070;2023-05-19T08:42:44;102836.06;;;16.72
77599;BMP280;66758;52.078;5.070;2023-05-19T08:45:10;102836.44;;;16.46
77599;BMP280;66758;52.078;5.070;2023-05-19T08:47:39;102836.00;;;16.44
77599;BMP280;66758;52.078;5.070;2023-05-19T08:50:06;102827.69;;;16.08
77599;BMP280;66758;52.078;5.070;2023-05-19T08:52:52;102823.63;;;16.05
77599;BMP280;66758;52.078;5.070;2023-05-19T08:57:51;102825.16;;;16.27
77599;BMP280;66758;52.078;5.070;2023-05-19T09:00:18;102815.47;;;16.21
77599;BMP280;66758;52.078;5.070;2023-05-19T09:02:47;102812.13;;;16.40
77599;BMP280;66758;52.078;5.070;2023-05-19T09:05:15;102812.69;;;16.97
77599;BMP280;66758;52.078;5.070;2023-05-19T09:07:43;102811.41;;;17.35
77599;BMP280;66758;52.078;5.070;2023-05-19T09:10:09;102818.66;;;18.14
77599;BMP280;66758;52.078;5.070;2023-05-19T09:12:39;102814.72;;;18.50
77599;BMP280;66758;52.078;5.070;2023-05-19T09:15:07;102821.38;;;16.96
77599;BMP280;66758;52.078;5.070;2023-05-19T09:17:34;102817.31;;;18.08
77599;BMP280;66758;52.078;5.070;2023-05-19T09:20:02;102817.09;;;18.86
77599;BMP280;66758;52.078;5.070;2023-05-19T09:22:29;102822.97;;;17.52
77599;BMP280;66758;52.078;5.070;2023-05-19T09:24:55;102820.16;;;17.96
77599;BMP280;66758;52.078;5.070;2023-05-19T09:27:21;102826.94;;;18.30
77599;BMP280;66758;52.078;5.070;2023-05-19T09:29:48;102828.38;;;17.92
77599;BMP280;66758;52.078;5.070;2023-05-19T09:32:24;102832.19;;;19.47
77599;BMP280;66758;52.078;5.070;2023-05-19T09:34:52;102827.31;;;20.38
77599;BMP280;66758;52.078;5.070;2023-05-19T09:37:22;102816.47;;;20.59
77599;BMP280;66758;52.078;5.070;2023-05-19T09:39:48;102819.59;;;20.24
77599;BMP280;66758;52.078;5.070;2023-05-19T09:42:23;102811.66;;;21.27
77599;BMP280;66758;52.078;5.070;2023-05-19T09:45:00;102816.09;;;19.56
77599;BMP280;66758;52.078;5.070;2023-05-19T09:47:26;102807.19;;;20.82
77599;BMP280;66758;52.078;5.070;2023-05-19T09:49:52;102822.88;;;18.43
77599;BMP280;66758;52.078;5.070;2023-05-19T09:52:18;102814.03;;;19.11
77599;BMP280;66758;52.078;5.070;2023-05-19T09:54:44;102813.63;;;17.73
77599;BMP280;66758;52.078;5.070;2023-05-19T09:57:09;102810.31;;;17.67
77599;BMP280;66758;52.078;5.070;2023-05-19T09:59:35;102806.25;;;19.62
77599;BMP280;66758;52.078;5.070;2023-05-19T10:02:03;102806.69;;;21.09
77599;BMP280;66758;52.078;5.070;2023-05-19T10:04:30;102800.66;;;20.37
77599;BMP280;66758;52.078;5.070;2023-05-19T10:06:56;102795.75;;;21.31
77599;BMP280;66758;52.078;5.070;2023-05-19T10:09:28;102803.47;;;21.04
77599;BMP280;66758;52.078;5.070;2023-05-19T10:11:56;102797.69;;;20.53
77599;BMP280;66758;52.078;5.070;2023-05-19T10:14:26;102806.72;;;19.45
77599;BMP280;66758;52.078;5.070;2023-05-19T10:17:01;102807.44;;;19.00
77599;BMP280;66758;52.078;5.070;2023-05-19T10:19:27;102797.22;;;19.68
77599;BMP280;66758;52.078;5.070;2023-05-19T10:21:53;102805.38;;;19.58
77599;BMP280;66758;52.078;5.070;2023-05-19T10:24:19;102789.75;;;19.50
77599;BMP280;66758;52.078;5.070;2023-05-19T10:26:51;102779.44;;;20.59
77599;BMP280;66758;52.078;5.070;2023-05-19T10:29:27;102794.94;;;18.90
77599;BMP280;66758;52.078;5.070;2023-05-19T10:32:09;102779.94;;;20.35
77599;BMP280;66758;52.078;5.070;2023-05-19T10:40:29;102790.59;;;19.54
77599;BMP280;66758;52.078;5.070;2023-05-19T10:43:30;102784.94;;;20.52
77599;BMP280;66758;52.078;5.070;2023-05-19T10:46:01;102771.28;;;21.13
77599;BMP280;66758;52.078;5.070;2023-05-19T10:48:32;102768.38;;;20.33
77599;BMP280;66758;52.078;5.070;2023-05-19T10:50:59;102767.34;;;20.81
77599;BMP280;66758;52.078;5.070;2023-05-19T10:53:30;102773.69;;;20.78
77599;BMP280;66758;52.078;5.070;2023-05-19T10:55:56;102768.84;;;22.10
77599;BMP280;66758;52.078;5.070;2023-05-19T11:01:15;102765.97;;;23.50
77599;BMP280;66758;52.078;5.070;2023-05-19T11:03:51;102766.88;;;22.14
77599;BMP280;66758;52.078;5.070;2023-05-19T11:06:28;102769.84;;;20.53
77599;BMP280;66758;52.078;5.070;2023-05-19T11:09:00;102760.06;;;24.42
77599;BMP280;66758;52.078;5.070;2023-05-19T11:11:41;102764.34;;;20.30
77599;BMP280;66758;52.078;5.070;2023-05-19T11:14:09;102770.53;;;19.64
77599;BMP280;66758;52.078;5.070;2023-05-19T11:16:36;102752.34;;;19.47
77599;BMP280;66758;52.078;5.070;2023-05-19T11:19:01;102764.38;;;18.90
77599;BMP280;66758;52.078;5.070;2023-05-19T11:21:49;102760.28;;;20.20
77599;BMP280;66758;52.078;5.070;2023-05-19T11:24:46;102755.78;;;21.16
77599;BMP280;66758;52.078;5.070;2023-05-19T11:29:47;102754.66;;;20.50
77599;BMP280;66758;52.078;5.070;2023-05-19T11:32:13;102759.69;;;19.59
77599;BMP280;66758;52.078;5.070;2023-05-19T11:34:39;102756.16;;;19.39
77599;BMP280;66758;52.078;5.070;2023-05-19T11:37:06;102749.88;;;19.91
77599;BMP280;66758;52.078;5.070;2023-05-19T11:39:33;102761.28;;;19.83
77599;BMP280;66758;52.078;5.070;2023-05-19T11:41:59;102743.94;;;21.81
77599;BMP280;66758;52.078;5.070;2023-05-19T11:44:24;102747.44;;;19.86
77599;BMP280;66758;52.078;5.070;2023-05-19T11:46:53;102747.03;;;20.44
77599;BMP280;66758;52.078;5.070;2023-05-19T11:49:18;102737.06;;;20.43
77599;BMP280;66758;52.078;5.070;2023-05-19T11:51:44;102745.88;;;21.22
77599;BMP280;66758;52.078;5.070;2023-05-19T11:54:10;102746.69;;;21.74
77599;BMP280;66758;52.078;5.070;2023-05-19T11:56:42;102742.72;;;21.78
77599;BMP280;66758;52.078;5.070;2023-05-19T11:59:08;102746.00;;;20.96
77599;BMP280;66758;52.078;5.070;2023-05-19T12:01:34;102732.53;;;24.26
77599;BMP280;66758;52.078;5.070;2023-05-19T12:04:00;102745.53;;;22.61
77599;BMP280;66758;52.078;5.070;2023-05-19T12:06:29;102727.88;;;26.44
77599;BMP280;66758;52.078;5.070;2023-05-19T12:08:55;102739.25;;;21.92
77599;BMP280;66758;52.078;5.070;2023-05-19T12:11:22;102743.94;;;23.66
77599;BMP280;66758;52.078;5.070;2023-05-19T12:13:48;102727.00;;;27.79
77599;BMP280;66758;52.078;5.070;2023-05-19T12:16:18;102742.38;;;23.44
77599;BMP280;66758;52.078;5.070;2023-05-19T12:18:44;102742.81;;;23.21
77599;BMP280;66758;52.078;5.070;2023-05-19T12:21:10;102712.28;;;26.89
77599;BMP280;66758;52.078;5.070;2023-05-19T12:23:36;102723.59;;;22.88
77599;BMP280;66758;52.078;5.070;2023-05-19T12:26:03;102719.47;;;22.32
77599;BMP280;66758;52.078;5.070;2023-05-19T12:28:29;102727.19;;;22.88
77599;BMP280;66758;52.078;5.070;2023-05-19T12:30:55;102723.41;;;22.21
77599;BMP280;66758;52.078;5.070;2023-05-19T12:33:23;102719.22;;;22.83
77599;BMP280;66758;52.078;5.070;2023-05-19T12:35:49;102714.94;;;27.19
77599;BMP280;66758;52.078;5.070;2023-05-19T12:38:15;102712.63;;;27.73
77599;BMP280;66758;52.078;5.070;2023-05-19T12:40:41;102719.59;;;22.71
77599;BMP280;66758;52.078;5.070;2023-05-19T12:43:07;102721.41;;;21.05
77599;BMP280;66758;52.078;5.070;2023-05-19T12:45:38;102714.34;;;20.70
77599;BMP280;66758;52.078;5.070;2023-05-19T12:48:13;102712.34;;;22.42
77599;BMP280;66758;52.078;5.070;2023-05-19T12:50:40;102714.31;;;21.11
77599;BMP280;66758;52.078;5.070;2023-05-19T12:53:15;102710.00;;;22.65
77599;BMP280;66758;52.078;5.070;2023-05-19T12:55:42;102723.28;;;21.38
77599;BMP280;66758;52.078;5.070;2023-05-19T12:58:08;102708.41;;;23.03
77599;BMP280;66758;52.078;5.070;2023-05-19T13:00:40;102699.34;;;24.76
77599;BMP280;66758;52.078;5.070;2023-05-19T13:03:07;102685.94;;;25.01
77599;BMP280;66758;52.078;5.070;2023-05-19T13:05:38;102696.28;;;22.21
77599;BMP280;66758;52.078;5.070;2023-05-19T13:08:08;102697.13;;;21.56
77599;BMP280;66758;52.078;5.070;2023-05-19T13:10:36;102697.50;;;21.51
77599;BMP280;66758;52.078;5.070;2023-05-19T13:13:02;102687.94;;;22.35
77599;BMP280;66758;52.078;5.070;2023-05-19T13:15:29;102689.69;;;20.80
77599;BMP280;66758;52.078;5.070;2023-05-19T13:18:03;102697.78;;;20.18
77599;BMP280;66758;52.078;5.070;2023-05-19T13:20:30;102688.03;;;21.12
77599;BMP280;66758;52.078;5.070;2023-05-19T13:22:56;102685.06;;;20.91
77599;BMP280;66758;52.078;5.070;2023-05-19T13:25:21;102679.31;;;21.75
77599;BMP280;66758;52.078;5.070;2023-05-19T13:27:47;102686.66;;;20.51
77599;BMP280;66758;52.078;5.070;2023-05-19T13:30:13;102680.84;;;21.07
77599;BMP280;66758;52.078;5.070;2023-05-19T13:32:41;102687.78;;;19.34
77599;BMP280;66758;52.078;5.070;2023-05-19T13:35:08;102688.47;;;19.77
77599;BMP280;66758;52.078;5.070;2023-05-19T13:37:33;102667.16;;;19.36
77599;BMP280;66758;52.078;5.070;2023-05-19T13:39:59;102680.84;;;19.74
77599;BMP280;66758;52.078;5.070;2023-05-19T13:42:24;102681.50;;;21.45
77599;BMP280;66758;52.078;5.070;2023-05-19T13:44:54;102677.94;;;22.31
77599;BMP280;66758;52.078;5.070;2023-05-19T13:47:21;102673.25;;;23.34
77599;BMP280;66758;52.078;5.070;2023-05-19T13:49:47;102669.19;;;22.32
77599;BMP280;66758;52.078;5.070;2023-05-19T13:52:12;102668.00;;;22.30
77599;BMP280;66758;52.078;5.070;2023-05-19T13:54:38;102666.88;;;22.98
77599;BMP280;66758;52.078;5.070;2023-05-19T13:57:04;102675.66;;;22.75
77599;BMP280;66758;52.078;5.070;2023-05-19T13:59:30;102667.69;;;22.95
77599;BMP280;66758;52.078;5.070;2023-05-19T14:01:56;102661.28;;;22.77
77599;BMP280;66758;52.078;5.070;2023-05-19T14:04:21;102653.59;;;24.38
77599;BMP280;66758;52.078;5.070;2023-05-19T14:06:49;102657.31;;;25.85
77599;BMP280;66758;52.078;5.070;2023-05-19T14:09:14;102656.38;;;22.13
77599;BMP280;66758;52.078;5.070;2023-05-19T14:11:41;102677.81;;;20.83
77599;BMP280;66758;52.078;5.070;2023-05-19T14:14:06;102658.75;;;20.92
77599;BMP280;66758;52.078;5.070;2023-05-19T14:16:32;102651.66;;;23.38
77599;BMP280;66758;52.078;5.070;2023-05-19T14:18:57;102658.00;;;21.46
77599;BMP280;66758;52.078;5.070;2023-05-19T14:21:23;102650.22;;;20.34
77599;BMP280;66758;52.078;5.070;2023-05-19T14:23:49;102652.41;;;20.51
77599;BMP280;66758;52.078;5.070;2023-05-19T14:26:15;102666.91;;;20.30